Skiatook, Oklahoma
Current Conditions -  °F | °C
As of 11:53 PM on Sunday 19 Oct 2014 (Local Time) from KTUL Reporting Station
Overcast Overcast  
Wind Chill: 65°   Ceiling: 10000
Heat Index: 65°   Visibility: 10mi
Dew Point: 52°   Wind: 8mph
Humidity: 63%   Direction: 190°S
Pressure: 30.04"   Gusts: NA
Location:  36.37°N, 96°W
Report Text: KTUL 200453Z 19007KT 10SM SCT080 OVC100 18/11 A3004 RMK AO2 SLP169 T01830111
Loading
Personal Weather Stations






























Interactive Weather Map
Tropical Storm Tracking
New forecast layout! Learn more

10-Day Weather Forecast

Advertisements
Track Severe Weather on mobile